createdAt,value
2023-05-03T00:04:32.051Z,9.96
2023-05-03T00:09:52.909Z,9.98
2023-05-03T00:15:13.874Z,10.02
2023-05-03T00:20:34.927Z,10.05
2023-05-03T00:25:57.491Z,10.06
2023-05-03T00:31:19.570Z,9.99
2023-05-03T00:36:40.471Z,9.91
2023-05-03T00:42:04.372Z,9.89
2023-05-03T00:47:25.724Z,9.92
2023-05-03T00:52:47.112Z,9.95
2023-05-03T00:58:08.107Z,10.04
2023-05-03T01:03:29.470Z,10.04
2023-05-03T01:08:59.221Z,9.98
2023-05-03T01:14:54.644Z,9.94
2023-05-03T01:20:24.782Z,9.84
2023-05-03T01:25:45.829Z,9.80
2023-05-03T01:31:07.201Z,9.70
2023-05-03T01:36:34.546Z,9.69
2023-05-03T01:41:58.112Z,9.81
2023-05-03T01:47:19.039Z,9.72
2023-05-03T01:52:40.376Z,9.76
2023-05-03T01:58:01.361Z,9.73
2023-05-03T02:03:22.834Z,9.79
2023-05-03T02:08:43.612Z,9.72
2023-05-03T02:14:04.711Z,9.56
2023-05-03T02:19:25.687Z,9.41
2023-05-03T02:24:47.362Z,9.35
2023-05-03T02:30:08.986Z,9.30
2023-05-03T02:35:35.924Z,9.27
2023-05-03T02:40:56.920Z,9.23
2023-05-03T02:46:19.368Z,9.31
2023-05-03T02:51:40.452Z,9.37
2023-05-03T02:57:02.183Z,9.34
2023-05-03T03:02:23.410Z,9.27
2023-05-03T03:07:44.574Z,9.29
2023-05-03T03:13:05.591Z,9.21
2023-05-03T03:18:32.018Z,9.28
2023-05-03T03:23:53.344Z,9.32
2023-05-03T03:29:14.083Z,9.46
2023-05-03T03:34:37.869Z,9.47
2023-05-03T03:39:59.565Z,9.42
2023-05-03T03:45:20.885Z,9.51
2023-05-03T03:50:44.199Z,9.58
2023-05-03T03:56:06.713Z,9.61
2023-05-03T04:01:28.346Z,9.45
2023-05-03T04:06:51.305Z,9.30
2023-05-03T04:12:12.856Z,9.29
2023-05-03T04:17:35.597Z,9.27
2023-05-03T04:23:00.377Z,9.28
2023-05-03T04:28:25.906Z,9.35
2023-05-03T04:33:47.396Z,9.29
2023-05-03T04:39:11.553Z,9.27
2023-05-03T04:44:33.166Z,9.30
2023-05-03T04:49:54.290Z,9.40
2023-05-03T04:55:15.829Z,9.45
2023-05-03T05:00:37.043Z,9.52
2023-05-03T05:06:07.043Z,9.57
2023-05-03T05:11:29.055Z,9.57
2023-05-03T05:16:50.282Z,9.69
2023-05-03T05:22:11.867Z,9.70
2023-05-03T05:27:41.783Z,9.72
2023-05-03T05:33:03.808Z,9.58
2023-05-03T05:38:25.209Z,9.46
2023-05-03T05:43:50.446Z,9.57
2023-05-03T05:49:11.332Z,9.68
2023-05-03T05:54:33.172Z,9.87
2023-05-03T05:59:54.624Z,9.85
2023-05-03T06:05:15.400Z,10.45
2023-05-03T06:10:37.555Z,11.03
2023-05-03T06:15:58.750Z,11.19
2023-05-03T06:21:20.159Z,11.36
2023-05-03T06:26:41.552Z,11.57
2023-05-03T06:32:03.236Z,11.88
2023-05-03T06:37:24.261Z,11.85
2023-05-03T06:42:45.569Z,11.68
2023-05-03T06:48:12.445Z,12.23
2023-05-03T06:53:33.645Z,12.38
2023-05-03T06:58:54.696Z,11.86
2023-05-03T07:04:15.853Z,11.64
2023-05-03T07:09:43.182Z,11.56
2023-05-03T07:15:04.559Z,11.51
2023-05-03T07:20:26.474Z,11.48
2023-05-03T07:25:47.745Z,11.32
2023-05-03T07:31:08.746Z,11.13
2023-05-03T07:36:30.120Z,11.29
2023-05-03T07:41:51.411Z,11.11
2023-05-03T07:47:12.610Z,11.13
2023-05-03T07:52:37.691Z,11.13
2023-05-03T07:57:59.563Z,11.05
2023-05-03T08:03:21.180Z,10.97
2023-05-03T08:08:42.826Z,10.95
2023-05-03T08:14:03.790Z,10.85
2023-05-03T08:19:24.681Z,10.86
2023-05-03T08:24:46.513Z,11.00
2023-05-03T08:30:08.874Z,11.02
2023-05-03T08:35:29.787Z,11.43
2023-05-03T08:40:58.258Z,11.53
2023-05-03T08:46:19.511Z,11.58
2023-05-03T08:51:42.364Z,11.69
2023-05-03T08:57:04.386Z,11.79
2023-05-03T09:02:25.832Z,11.86
2023-05-03T09:08:07.875Z,12.05
2023-05-03T09:13:32.184Z,12.23
2023-05-03T09:19:03.331Z,12.30
2023-05-03T09:24:24.252Z,12.06
2023-05-03T09:29:44.947Z,12.08
2023-05-03T09:35:10.401Z,12.34
2023-05-03T09:40:31.500Z,12.79
2023-05-03T09:45:52.944Z,12.74
2023-05-03T09:51:13.969Z,12.52
2023-05-03T09:56:34.888Z,12.64
2023-05-03T10:01:59.734Z,12.75
2023-05-03T10:07:23.347Z,12.83
2023-05-03T10:12:46.268Z,12.47
2023-05-03T10:18:08.367Z,12.30
2023-05-03T10:23:29.745Z,12.34
2023-05-03T10:28:50.689Z,12.31
2023-05-03T10:34:22.266Z,12.54
2023-05-03T10:39:46.749Z,12.58
2023-05-03T10:45:09.070Z,12.58
2023-05-03T10:50:30.209Z,12.81
2023-05-03T10:56:08.314Z,12.77
2023-05-03T11:01:30.438Z,12.77
2023-05-03T11:06:56.914Z,12.79
2023-05-03T11:12:17.768Z,12.87
2023-05-03T11:17:39.195Z,12.93
2023-05-03T11:23:00.147Z,12.79
2023-05-03T11:28:21.516Z,12.87
2023-05-03T11:33:42.762Z,12.79
2023-05-03T11:39:06.055Z,12.91
2023-05-03T11:44:27.466Z,12.76
2023-05-03T11:49:56.331Z,12.91
2023-05-03T11:55:17.952Z,12.80
2023-05-03T12:00:40.168Z,12.93
2023-05-03T12:06:02.744Z,13.13
2023-05-03T12:11:27.241Z,13.41
2023-05-03T12:16:57.012Z,13.39
2023-05-03T12:22:26.255Z,13.26
2023-05-03T12:27:56.023Z,13.33
2023-05-03T12:33:28.556Z,13.31
2023-05-03T12:38:55.812Z,13.35
2023-05-03T12:44:21.322Z,13.43
2023-05-03T12:49:46.155Z,13.54
2023-05-03T12:55:11.053Z,13.63
2023-05-03T13:00:35.912Z,13.69
2023-05-03T13:05:57.978Z,13.65
2023-05-03T13:11:19.878Z,13.70
2023-05-03T13:16:44.676Z,13.72
2023-05-03T13:22:05.388Z,13.82
2023-05-03T13:27:26.539Z,13.89
2023-05-03T13:32:47.941Z,13.80
2023-05-03T13:38:09.239Z,13.78
2023-05-03T13:43:30.122Z,13.86
2023-05-03T13:48:52.761Z,13.79
2023-05-03T13:54:13.719Z,13.95
2023-05-03T13:59:34.593Z,14.08
2023-05-03T14:04:55.649Z,14.10
2023-05-03T14:10:16.896Z,14.00
2023-05-03T14:15:43.201Z,13.84
2023-05-03T14:21:04.427Z,13.99
2023-05-03T14:26:26.736Z,14.11
2023-05-03T14:31:48.021Z,14.09
2023-05-03T14:37:09.358Z,14.13
2023-05-03T14:42:30.764Z,14.11
2023-05-03T14:47:52.087Z,14.16
2023-05-03T14:53:13.168Z,14.05
2023-05-03T14:58:33.933Z,14.17
2023-05-03T15:03:54.851Z,14.28
2023-05-03T15:09:15.513Z,14.23
2023-05-03T15:14:36.261Z,14.05
2023-05-03T15:19:56.944Z,14.06
2023-05-03T15:25:17.960Z,14.02
2023-05-03T15:30:40.997Z,14.03
2023-05-03T15:36:07.260Z,14.11
2023-05-03T15:41:28.356Z,14.12
2023-05-03T15:46:52.178Z,14.08
2023-05-03T15:52:16.208Z,14.00
2023-05-03T15:57:37.341Z,13.90
2023-05-03T16:03:05.928Z,13.80
2023-05-03T16:08:29.160Z,13.84
2023-05-03T16:13:50.535Z,13.83
2023-05-03T16:19:11.950Z,13.70
2023-05-03T16:24:35.703Z,13.75
2023-05-03T16:29:58.232Z,13.73
2023-05-03T16:35:19.547Z,13.65
2023-05-03T16:40:40.942Z,13.54
2023-05-03T16:46:02.498Z,13.56
2023-05-03T16:51:23.881Z,13.59
2023-05-03T16:56:44.682Z,13.57
2023-05-03T17:02:06.458Z,13.48
2023-05-03T17:07:27.190Z,13.40
2023-05-03T17:12:48.994Z,13.40
2023-05-03T17:18:10.284Z,13.46
2023-05-03T17:23:39.467Z,13.45
2023-05-03T17:29:01.067Z,13.41
2023-05-03T17:34:22.532Z,13.44
2023-05-03T17:39:43.434Z,13.39
2023-05-03T17:45:05.424Z,13.37
2023-05-03T17:50:26.283Z,13.32
2023-05-03T17:55:47.071Z,13.39
2023-05-03T18:01:10.537Z,13.35
2023-05-03T18:06:31.282Z,13.35
2023-05-03T18:11:54.719Z,13.25
2023-05-03T18:17:15.654Z,13.20
2023-05-03T18:22:37.640Z,13.19
2023-05-03T18:27:58.496Z,13.06
2023-05-03T18:33:20.027Z,12.96
2023-05-03T18:38:43.050Z,12.85
2023-05-03T18:44:04.486Z,12.79
2023-05-03T18:49:25.191Z,12.79
2023-05-03T18:54:45.883Z,12.58
2023-05-03T19:00:09.665Z,12.36
2023-05-03T19:05:31.074Z,12.33
2023-05-03T19:10:52.265Z,12.14
2023-05-03T19:16:14.049Z,12.12
2023-05-03T19:21:37.803Z,12.13
2023-05-03T19:26:58.523Z,12.12
2023-05-03T19:32:19.310Z,12.03
2023-05-03T19:37:40.313Z,11.81
2023-05-03T19:43:02.223Z,11.64
2023-05-03T19:48:23.257Z,11.42
2023-05-03T19:53:45.541Z,11.35
2023-05-03T19:59:07.695Z,11.18
2023-05-03T20:04:28.798Z,10.94
2023-05-03T20:09:49.966Z,10.87
2023-05-03T20:15:11.743Z,10.80
2023-05-03T20:20:33.095Z,10.73
2023-05-03T20:25:54.208Z,10.78
2023-05-03T20:31:14.985Z,10.76
2023-05-03T20:36:35.868Z,10.75
2023-05-03T20:41:56.682Z,10.72
2023-05-03T20:47:18.159Z,10.71
2023-05-03T20:52:39.287Z,10.69
2023-05-03T20:57:59.995Z,10.65
2023-05-03T21:03:25.170Z,10.67
2023-05-03T21:08:47.329Z,10.64
2023-05-03T21:14:08.844Z,10.59
2023-05-03T21:19:29.827Z,10.52
2023-05-03T21:24:51.225Z,10.36
2023-05-03T21:30:13.730Z,10.17
2023-05-03T21:35:34.961Z,10.14
2023-05-03T21:41:05.759Z,10.11
2023-05-03T21:46:26.744Z,10.12
2023-05-03T21:51:47.740Z,10.13
2023-05-03T21:57:09.039Z,10.13
2023-05-03T22:02:29.887Z,10.17
2023-05-03T22:07:51.286Z,10.10
2023-05-03T22:13:12.497Z,10.02
2023-05-03T22:18:35.023Z,10.07
2023-05-03T22:23:55.775Z,10.12
2023-05-03T22:29:17.729Z,9.99
2023-05-03T22:34:38.864Z,9.96
2023-05-03T22:39:59.579Z,9.98
2023-05-03T22:45:20.708Z,10.10
2023-05-03T22:50:41.925Z,10.10
2023-05-03T22:56:06.750Z,10.19
2023-05-03T23:01:28.201Z,10.25
2023-05-03T23:06:49.176Z,10.31
2023-05-03T23:12:10.013Z,10.25
2023-05-03T23:17:30.889Z,10.19
2023-05-03T23:22:51.949Z,10.22
2023-05-03T23:28:12.747Z,10.28
2023-05-03T23:33:34.109Z,10.25
2023-05-03T23:38:55.058Z,10.17
2023-05-03T23:44:15.747Z,9.89
2023-05-03T23:49:36.517Z,9.86
2023-05-03T23:54:57.295Z,9.72
